createdAt,value
2023-01-04T00:00:00.877Z,2.40
2023-01-04T00:04:04.037Z,2.50
2023-01-04T00:08:12.650Z,2.50
2023-01-04T00:12:42.984Z,2.60
2023-01-04T00:16:46.592Z,2.70
2023-01-04T00:20:51.130Z,2.80
2023-01-04T00:24:55.579Z,2.90
2023-01-04T00:29:04.345Z,2.90
2023-01-04T00:33:35.295Z,2.90
2023-01-04T00:37:38.311Z,3.00
2023-01-04T00:42:01.186Z,3.00
2023-01-04T00:46:28.070Z,3.00
2023-01-04T00:50:31.371Z,3.10
2023-01-04T00:54:37.433Z,3.20
2023-01-04T00:58:42.039Z,3.30
2023-01-04T01:02:45.577Z,3.30
2023-01-04T01:06:51.161Z,3.40
2023-01-04T01:10:55.004Z,3.40
2023-01-04T01:15:04.337Z,3.50
2023-01-04T01:19:39.484Z,3.40
2023-01-04T01:23:43.931Z,3.50
2023-01-04T01:27:46.907Z,3.50
2023-01-04T01:31:51.436Z,3.60
2023-01-04T01:36:28.438Z,3.60
2023-01-04T01:40:31.601Z,3.60
2023-01-04T01:45:12.480Z,3.60
2023-01-04T01:49:24.844Z,3.60
2023-01-04T01:53:54.955Z,3.50
2023-01-04T01:58:03.695Z,3.50
2023-01-04T02:02:37.536Z,3.50
2023-01-04T02:06:48.821Z,3.50
2023-01-04T02:11:18.256Z,3.50
2023-01-04T02:15:24.847Z,3.60
2023-01-04T02:20:06.511Z,3.50
2023-01-04T02:24:44.871Z,3.60
2023-01-04T02:29:13.872Z,3.70
2023-01-04T02:33:40.270Z,3.70
2023-01-04T02:37:52.024Z,3.70
2023-01-04T02:42:24.514Z,3.60
2023-01-04T02:46:30.974Z,3.60
2023-01-04T02:50:40.674Z,3.70
2023-01-04T02:54:49.460Z,3.70
2023-01-04T02:59:04.948Z,3.70
2023-01-04T03:03:42.244Z,3.80
2023-01-04T03:07:52.768Z,3.80
2023-01-04T03:12:18.980Z,3.80
2023-01-04T03:16:26.187Z,3.80
2023-01-04T03:20:31.542Z,3.90
2023-01-04T03:24:53.731Z,4.00
2023-01-04T03:29:24.848Z,4.10
2023-01-04T03:33:45.317Z,4.20
2023-01-04T03:38:20.658Z,4.20
2023-01-04T03:42:48.218Z,4.20
2023-01-04T03:47:12.366Z,4.40
2023-01-04T03:51:20.293Z,4.40
2023-01-04T03:55:25.543Z,4.50
2023-01-04T03:59:30.249Z,4.60
2023-01-04T04:03:51.703Z,4.70
2023-01-04T04:08:13.091Z,4.70
2023-01-04T04:12:16.276Z,4.80
2023-01-04T04:16:20.759Z,4.80
2023-01-04T04:20:23.941Z,4.70
2023-01-04T04:24:30.082Z,4.70
2023-01-04T04:28:33.490Z,4.70
2023-01-04T04:32:43.045Z,4.70
2023-01-04T04:36:46.205Z,4.60
2023-01-04T04:41:08.611Z,4.60
2023-01-04T04:45:12.323Z,4.60
2023-01-04T04:49:17.492Z,4.60
2023-01-04T04:53:23.555Z,4.70
2023-01-04T04:57:28.542Z,4.70
2023-01-04T05:01:35.227Z,4.80
2023-01-04T05:05:39.850Z,4.80
2023-01-04T05:09:44.854Z,4.90
2023-01-04T05:13:47.992Z,5.00
2023-01-04T05:17:54.047Z,5.00
2023-01-04T05:22:02.324Z,5.10
2023-01-04T05:26:05.761Z,5.10
2023-01-04T05:30:29.456Z,5.10
2023-01-04T05:34:35.344Z,5.20
2023-01-04T05:38:39.797Z,5.20
2023-01-04T05:42:45.491Z,5.20
2023-01-04T05:46:48.546Z,5.20
2023-01-04T05:50:56.004Z,5.30
2023-01-04T05:55:06.289Z,5.30
2023-01-04T05:59:09.296Z,5.40
2023-01-04T06:03:12.537Z,5.40
2023-01-04T06:07:16.869Z,5.40
2023-01-04T06:11:27.272Z,5.40
2023-01-04T06:15:39.518Z,5.50
2023-01-04T06:19:45.984Z,5.50
2023-01-04T06:23:49.067Z,5.50
2023-01-04T06:27:53.490Z,5.60
2023-01-04T06:31:59.546Z,5.60
2023-01-04T06:36:02.932Z,5.60
2023-01-04T06:40:07.485Z,5.70
2023-01-04T06:44:15.271Z,5.70
2023-01-04T06:48:18.730Z,5.70
2023-01-04T06:52:24.476Z,5.80
2023-01-04T06:56:28.047Z,5.80
2023-01-04T07:00:35.163Z,5.80
2023-01-04T07:04:38.288Z,5.80
2023-01-04T07:08:41.681Z,5.90
2023-01-04T07:12:46.550Z,5.90
2023-01-04T07:16:53.026Z,5.90
2023-01-04T07:20:59.052Z,5.90
2023-01-04T07:25:02.167Z,6.00
2023-01-04T07:29:17.521Z,6.00
2023-01-04T07:33:22.017Z,6.10
2023-01-04T07:37:29.739Z,6.10
2023-01-04T07:41:33.787Z,6.10
2023-01-04T07:45:39.769Z,6.20
2023-01-04T07:49:44.416Z,6.20
2023-01-04T07:53:47.541Z,6.20
2023-01-04T07:57:50.639Z,6.20
2023-01-04T08:01:54.104Z,6.20
2023-01-04T08:05:59.483Z,6.30
2023-01-04T08:10:08.477Z,6.40
2023-01-04T08:14:14.257Z,6.40
2023-01-04T08:18:20.472Z,6.50
2023-01-04T08:22:28.984Z,6.70
2023-01-04T08:26:34.927Z,6.80
2023-01-04T08:30:38.038Z,6.90
2023-01-04T08:34:47.414Z,7.10
2023-01-04T08:39:00.491Z,7.10
2023-01-04T08:43:06.924Z,7.20
2023-01-04T08:47:12.816Z,7.30
2023-01-04T08:51:17.738Z,7.40
2023-01-04T08:55:23.718Z,7.60
2023-01-04T08:59:27.621Z,7.70
2023-01-04T09:03:31.500Z,7.80
2023-01-04T09:07:34.623Z,7.80
2023-01-04T09:11:40.106Z,7.90
2023-01-04T09:15:43.075Z,7.90
2023-01-04T09:19:46.236Z,7.90
2023-01-04T09:23:49.655Z,7.90
2023-01-04T09:27:54.357Z,7.80
2023-01-04T09:31:59.025Z,7.70
2023-01-04T09:36:03.793Z,7.80
2023-01-04T09:40:12.077Z,7.80
2023-01-04T09:44:39.713Z,7.90
2023-01-04T09:48:53.537Z,7.90
2023-01-04T09:53:04.247Z,7.90
2023-01-04T09:57:15.205Z,8.00
2023-01-04T10:01:23.391Z,8.00
2023-01-04T10:05:30.040Z,8.10
2023-01-04T10:09:33.311Z,8.10
2023-01-04T10:13:53.371Z,8.10
2023-01-04T10:22:41.526Z,8.10
2023-01-04T10:26:48.724Z,8.00
2023-01-04T10:31:38.857Z,7.90
2023-01-04T10:35:29.397Z,7.80
2023-01-04T10:39:36.206Z,7.80
2023-01-04T10:44:11.205Z,7.80
2023-01-04T10:48:20.401Z,7.80
2023-01-04T10:52:37.247Z,7.80
2023-01-04T10:56:56.800Z,7.80
2023-01-04T11:01:08.984Z,7.70
2023-01-04T11:05:20.958Z,7.70
2023-01-04T11:09:28.709Z,7.70
2023-01-04T11:13:32.866Z,7.70
2023-01-04T11:17:37.271Z,7.80
2023-01-04T11:21:50.546Z,7.90
2023-01-04T11:26:08.984Z,8.00
2023-01-04T11:30:20.025Z,8.10
2023-01-04T11:34:45.573Z,8.20
2023-01-04T11:38:56.803Z,8.20
2023-01-04T11:43:20.919Z,8.30
2023-01-04T11:47:28.289Z,8.30
2023-01-04T11:51:39.668Z,8.30
2023-01-04T11:55:43.662Z,8.30
2023-01-04T12:00:08.928Z,8.30
2023-01-04T12:04:16.297Z,8.30
2023-01-04T12:08:30.249Z,8.40
2023-01-04T12:12:35.187Z,8.40
2023-01-04T12:16:52.386Z,8.50
2023-01-04T12:20:56.118Z,8.60
2023-01-04T12:25:01.088Z,8.70
2023-01-04T12:29:42.173Z,8.80
2023-01-04T12:33:47.473Z,8.90
2023-01-04T12:37:50.739Z,9.00
2023-01-04T12:42:26.686Z,9.10
2023-01-04T12:47:16.256Z,9.10
2023-01-04T12:51:32.100Z,9.30
2023-01-04T12:56:01.358Z,9.30
2023-01-04T13:00:11.644Z,9.30
2023-01-04T13:04:39.236Z,9.40
2023-01-04T13:08:47.136Z,9.50
2023-01-04T13:13:08.469Z,9.50
2023-01-04T13:17:23.154Z,9.60
2023-01-04T13:21:30.754Z,9.60
2023-01-04T13:25:40.143Z,9.70
2023-01-04T13:29:47.215Z,9.70
2023-01-04T13:33:50.306Z,9.70
2023-01-04T13:37:53.796Z,9.70
2023-01-04T13:42:03.993Z,9.70
2023-01-04T13:46:16.430Z,9.70
2023-01-04T13:50:31.637Z,9.80
2023-01-04T13:58:53.178Z,9.80
2023-01-04T14:03:24.531Z,9.90
2023-01-04T14:07:28.238Z,9.90
2023-01-04T14:11:52.070Z,9.90
2023-01-04T14:16:15.851Z,9.80
2023-01-04T14:20:38.622Z,9.80
2023-01-04T14:25:08.457Z,9.80
2023-01-04T14:29:25.848Z,9.80
2023-01-04T14:33:33.141Z,9.80
2023-01-04T14:37:36.295Z,9.80
2023-01-04T14:41:41.841Z,9.80
2023-01-04T14:45:47.921Z,9.80
2023-01-04T14:49:56.522Z,9.80
2023-01-04T14:53:59.773Z,9.80
2023-01-04T14:58:02.927Z,9.80
2023-01-04T15:02:07.739Z,9.80
2023-01-04T15:06:15.719Z,9.80
2023-01-04T15:10:25.991Z,9.80
2023-01-04T15:14:30.726Z,9.90
2023-01-04T15:18:34.042Z,9.90
2023-01-04T15:22:41.495Z,9.90
2023-01-04T15:26:47.310Z,10.00
2023-01-04T15:30:53.538Z,10.00
2023-01-04T15:34:59.857Z,10.00
2023-01-04T15:39:07.685Z,10.00
2023-01-04T15:43:11.874Z,10.00
2023-01-04T15:47:14.938Z,10.00
2023-01-04T15:51:18.527Z,10.00
2023-01-04T15:55:45.516Z,10.00
2023-01-04T15:59:51.783Z,10.00
2023-01-04T16:03:56.114Z,10.00
2023-01-04T16:08:53.719Z,9.90
2023-01-04T16:13:01.883Z,9.90
2023-01-04T16:17:04.939Z,9.80
2023-01-04T16:21:09.160Z,9.80
2023-01-04T16:25:14.061Z,9.90
2023-01-04T16:29:21.621Z,9.90
2023-01-04T16:33:57.042Z,9.90
2023-01-04T16:38:02.513Z,9.50
2023-01-04T16:42:10.704Z,9.40
2023-01-04T16:46:28.647Z,9.40
2023-01-04T16:50:31.735Z,9.60
2023-01-04T16:54:37.792Z,9.70
2023-01-04T16:58:43.827Z,9.80
2023-01-04T17:03:22.480Z,9.50
2023-01-04T17:07:32.798Z,9.30
2023-01-04T17:16:03.931Z,9.10
2023-01-04T17:20:09.853Z,9.10
2023-01-04T17:24:17.591Z,9.10
2023-01-04T17:28:25.136Z,9.10
2023-01-04T17:32:28.415Z,9.10
2023-01-04T17:37:06.628Z,9.00
2023-01-04T17:41:11.441Z,9.00
2023-01-04T17:45:45.695Z,8.90
2023-01-04T17:49:48.927Z,8.90
2023-01-04T17:53:57.910Z,8.80
2023-01-04T17:58:09.718Z,8.80
2023-01-04T18:02:38.593Z,8.80
2023-01-04T18:06:47.694Z,8.90
2023-01-04T18:11:08.503Z,8.90
2023-01-04T18:15:14.240Z,9.00
2023-01-04T18:19:22.907Z,9.00
2023-01-04T18:24:34.211Z,9.10
2023-01-04T18:28:18.484Z,9.10
2023-01-04T18:32:52.333Z,9.20
2023-01-04T18:36:57.783Z,9.20
2023-01-04T18:41:33.273Z,9.10
2023-01-04T18:46:12.075Z,9.10
2023-01-04T18:50:46.269Z,9.10
2023-01-04T18:54:52.282Z,9.20
2023-01-04T18:59:28.412Z,9.30
2023-01-04T19:04:08.809Z,9.40
2023-01-04T19:08:41.814Z,9.50
2023-01-04T19:13:19.230Z,9.50
2023-01-04T19:17:24.756Z,9.60
2023-01-04T19:21:59.790Z,9.60
2023-01-04T19:26:10.521Z,9.60
2023-01-04T19:30:39.134Z,9.60
2023-01-04T19:35:18.614Z,9.60
2023-01-04T19:39:52.428Z,9.60
2023-01-04T19:44:32.549Z,9.60
2023-01-04T19:49:12.479Z,9.70
2023-01-04T19:53:17.765Z,9.70
2023-01-04T19:57:23.666Z,9.80
2023-01-04T20:01:59.362Z,9.80
2023-01-04T20:06:05.252Z,9.90
2023-01-04T20:10:39.270Z,9.90
2023-01-04T20:14:42.421Z,10.00
2023-01-04T20:18:46.990Z,10.10
2023-01-04T20:23:24.100Z,10.20
2023-01-04T20:27:28.405Z,10.30
2023-01-04T20:32:08.613Z,10.30
2023-01-04T20:36:19.114Z,10.40
2023-01-04T20:40:48.549Z,10.40
2023-01-04T20:44:52.871Z,10.50
2023-01-04T20:49:26.724Z,10.50
2023-01-04T20:54:05.200Z,10.60
2023-01-04T20:58:38.826Z,10.60
2023-01-04T21:02:42.582Z,10.60
2023-01-04T21:06:45.863Z,10.60
2023-01-04T21:10:57.811Z,10.60
2023-01-04T21:15:25.456Z,10.60
2023-01-04T21:19:28.592Z,10.70
2023-01-04T21:23:32.008Z,10.70
2023-01-04T21:28:12.801Z,10.60
2023-01-04T21:32:18.490Z,10.50
2023-01-04T21:36:23.611Z,10.50
2023-01-04T21:40:27.159Z,10.60
2023-01-04T21:44:34.094Z,10.60
2023-01-04T21:48:37.263Z,10.60
2023-01-04T21:52:43.322Z,10.70
2023-01-04T21:56:46.577Z,10.70
2023-01-04T22:01:32.486Z,10.80
2023-01-04T22:05:37.760Z,10.80
2023-01-04T22:09:40.954Z,10.80
2023-01-04T22:13:44.539Z,10.90
2023-01-04T22:17:52.224Z,10.90
2023-01-04T22:21:55.497Z,10.90
2023-01-04T22:25:58.983Z,11.00
2023-01-04T22:30:02.324Z,11.00
2023-01-04T22:34:07.415Z,11.00
2023-01-04T22:38:41.919Z,11.00
2023-01-04T22:42:44.913Z,11.00
2023-01-04T22:46:48.333Z,11.10
2023-01-04T22:50:52.891Z,11.10
2023-01-04T22:54:58.022Z,11.10
2023-01-04T22:59:03.606Z,11.10
2023-01-04T23:03:10.676Z,11.10
2023-01-04T23:07:41.559Z,11.20
2023-01-04T23:11:49.293Z,11.20
2023-01-04T23:15:55.475Z,11.20
2023-01-04T23:19:58.562Z,11.20
2023-01-04T23:24:02.538Z,11.20
2023-01-04T23:28:06.986Z,11.30
2023-01-04T23:32:17.239Z,11.30
2023-01-04T23:36:21.960Z,11.30
2023-01-04T23:40:25.052Z,11.40
2023-01-04T23:44:33.875Z,11.40
2023-01-04T23:48:37.444Z,11.40
2023-01-04T23:52:42.933Z,11.40
2023-01-04T23:56:49.001Z,11.40
